createdAt,value
2018-12-16T00:00:15.096Z,1004.6
2018-12-16T00:00:55.479Z,1004.58
2018-12-16T00:01:35.856Z,1004.58
2018-12-16T00:02:16.654Z,1004.54
2018-12-16T00:02:57.054Z,1004.5
2018-12-16T00:03:37.457Z,1004.54
2018-12-16T00:06:00.840Z,1004.55
2018-12-16T00:06:52.787Z,1004.51
2018-12-16T00:07:45.363Z,1004.45
2018-12-16T00:08:35.584Z,1004.66
2018-12-16T00:10:36.948Z,1004.38
2018-12-16T00:11:30.088Z,1004.39
2018-12-16T00:12:21.409Z,1004.35
2018-12-16T00:13:14.143Z,1004.45
2018-12-16T00:14:06.982Z,1004.43
2018-12-16T00:14:59.903Z,1004.43
2018-12-16T00:15:52.214Z,1004.41
2018-12-16T00:16:44.295Z,1004.46
2018-12-16T00:17:37.591Z,1004.41
2018-12-16T00:18:30.454Z,1004.43
2018-12-16T00:19:23.540Z,1004.38
2018-12-16T00:20:16.200Z,1004.35
2018-12-16T00:21:08.554Z,1004.26
2018-12-16T00:22:01.780Z,1004.17
2018-12-16T00:22:54.040Z,1004.32
2018-12-16T00:23:45.667Z,1004.13
2018-12-16T00:24:25.784Z,1004.24
2018-12-16T00:25:06.156Z,1004.22
2018-12-16T00:25:47.399Z,1004.27
2018-12-16T00:26:28.774Z,1004.18
2018-12-16T00:27:09.144Z,1004.02
2018-12-16T00:27:49.820Z,1004.24
2018-12-16T00:28:30.159Z,1004.11
2018-12-16T00:29:10.732Z,1004.16
2018-12-16T00:29:51.260Z,1004.18
2018-12-16T00:30:31.944Z,1004
2018-12-16T00:31:12.390Z,1004.04
2018-12-16T00:31:52.901Z,1004.01
2018-12-16T00:32:33.324Z,1004.02
2018-12-16T00:33:13.723Z,1003.78
2018-12-16T00:33:54.096Z,1003.79
2018-12-16T00:34:34.718Z,1004
2018-12-16T00:35:14.952Z,1003.83
2018-12-16T00:35:55.370Z,1003.88
2018-12-16T00:36:35.923Z,1003.75
2018-12-16T00:37:16.209Z,1003.74
2018-12-16T00:37:56.851Z,1003.7
2018-12-16T00:38:37.199Z,1003.74
2018-12-16T00:39:17.603Z,1003.65
2018-12-16T00:39:57.946Z,1003.63
2018-12-16T00:40:38.348Z,1003.71
2018-12-16T00:41:18.691Z,1003.83
2018-12-16T00:41:59.198Z,1003.65
2018-12-16T00:42:39.447Z,1003.69
2018-12-16T00:43:21.178Z,1003.8
2018-12-16T00:44:01.901Z,1003.8
2018-12-16T00:44:42.309Z,1003.72
2018-12-16T00:45:22.722Z,1003.81
2018-12-16T00:46:04.066Z,1003.61
2018-12-16T00:46:44.479Z,1003.57
2018-12-16T00:47:24.761Z,1003.75
2018-12-16T00:48:05.109Z,1003.65
2018-12-16T00:48:45.915Z,1003.69
2018-12-16T00:49:26.205Z,1003.57
2018-12-16T00:50:06.517Z,1003.65
2018-12-16T00:50:46.904Z,1003.57
2018-12-16T00:51:27.498Z,1003.6
2018-12-16T00:52:09.028Z,1003.61
2018-12-16T00:52:49.480Z,1003.61
2018-12-16T00:53:30.008Z,1003.65
2018-12-16T00:54:10.360Z,1003.56
2018-12-16T00:54:50.914Z,1003.57
2018-12-16T00:55:31.314Z,1003.53
2018-12-16T00:56:13.654Z,1003.58
2018-12-16T00:56:54.091Z,1003.56
2018-12-16T00:57:34.956Z,1003.6
2018-12-16T00:58:16.066Z,1003.5
2018-12-16T00:58:58.218Z,1003.59
2018-12-16T00:59:38.574Z,1003.51
2018-12-16T01:00:19.021Z,1003.47
2018-12-16T01:00:59.567Z,1003.66
2018-12-16T01:01:40.371Z,1003.59
2018-12-16T01:02:22.000Z,1003.53
2018-12-16T01:03:02.361Z,1003.78
2018-12-16T01:03:42.732Z,1003.44
2018-12-16T01:04:23.048Z,1003.56
2018-12-16T01:05:03.439Z,1003.48
2018-12-16T01:05:43.838Z,1003.4
2018-12-16T01:06:24.292Z,1003.48
2018-12-16T01:07:05.386Z,1003.43
2018-12-16T01:07:46.532Z,1003.39
2018-12-16T01:08:27.598Z,1003.34
2018-12-16T01:09:08.243Z,1003.38
2018-12-16T01:09:48.630Z,1003.31
2018-12-16T01:10:29.270Z,1003.41
2018-12-16T01:11:10.456Z,1003.39
2018-12-16T01:11:51.113Z,1003.36
2018-12-16T01:12:34.007Z,1003.4
2018-12-16T01:13:14.466Z,1003.34
2018-12-16T01:13:54.895Z,1003.43
2018-12-16T01:14:36.564Z,1003.39
2018-12-16T01:15:16.672Z,1003.33
2018-12-16T01:15:57.233Z,1003.45
2018-12-16T01:16:37.720Z,1003.32
2018-12-16T01:17:18.432Z,1003.53
2018-12-16T01:17:58.673Z,1003.37
2018-12-16T01:18:39.039Z,1003.44
2018-12-16T01:19:20.112Z,1003.4
2018-12-16T01:20:00.485Z,1003.41
2018-12-16T01:20:41.354Z,1003.37
2018-12-16T01:21:21.765Z,1003.39
2018-12-16T01:22:03.059Z,1003.34
2018-12-16T01:22:43.828Z,1003.39
2018-12-16T01:23:24.009Z,1003.35
2018-12-16T01:24:05.671Z,1003.34
2018-12-16T01:24:46.075Z,1003.47
2018-12-16T01:25:26.467Z,1003.46
2018-12-16T01:26:06.949Z,1003.51
2018-12-16T01:26:48.157Z,1003.54
2018-12-16T01:27:28.676Z,1003.34
2018-12-16T01:28:09.498Z,1003.39
2018-12-16T01:28:51.201Z,1003.5
2018-12-16T01:29:31.508Z,1003.33
2018-12-16T01:30:11.878Z,1003.48
2018-12-16T01:30:52.255Z,1003.42
2018-12-16T01:31:32.760Z,1003.39
2018-12-16T01:32:13.133Z,1003.35
2018-12-16T01:32:53.772Z,1003.34
2018-12-16T01:33:34.556Z,1003.32
2018-12-16T01:34:15.640Z,1003.33
2018-12-16T01:34:56.090Z,1003.35
2018-12-16T01:35:36.466Z,1003.24
2018-12-16T01:36:16.824Z,1003.19
2018-12-16T01:36:57.267Z,1003.21
2018-12-16T01:37:37.919Z,1003.19
2018-12-16T01:38:18.379Z,1003.22
2018-12-16T01:38:58.710Z,1003.2
2018-12-16T01:39:39.216Z,1003.18
2018-12-16T01:40:19.582Z,1003.16
2018-12-16T01:41:00.189Z,1003.17
2018-12-16T01:41:40.560Z,1003.17
2018-12-16T01:42:21.975Z,1003.13
2018-12-16T01:43:02.272Z,1003.06
2018-12-16T01:43:42.604Z,1003.21
2018-12-16T01:44:23.034Z,1003.13
2018-12-16T01:45:03.462Z,1003.07
2018-12-16T01:45:43.887Z,1003.03
2018-12-16T01:46:24.551Z,1003.03
2018-12-16T01:47:04.864Z,1002.89
2018-12-16T01:47:45.236Z,1002.99
2018-12-16T01:48:25.841Z,1002.92
2018-12-16T01:49:06.255Z,1002.95
2018-12-16T01:49:46.630Z,1002.93
2018-12-16T01:50:27.003Z,1002.87
2018-12-16T01:51:07.395Z,1002.89
2018-12-16T01:51:47.874Z,1002.9
2018-12-16T01:52:28.185Z,1002.86
2018-12-16T01:53:08.641Z,1002.94
2018-12-16T01:53:48.983Z,1002.89
2018-12-16T01:54:29.503Z,1002.79
2018-12-16T01:55:09.914Z,1002.92
2018-12-16T01:55:50.188Z,1003.01
2018-12-16T01:56:30.564Z,1002.78
2018-12-16T01:57:10.970Z,1002.84
2018-12-16T01:57:51.355Z,1002.77
2018-12-16T01:58:32.198Z,1002.76
2018-12-16T01:59:12.554Z,1002.74
2018-12-16T01:59:52.910Z,1002.69
2018-12-16T02:00:33.530Z,1002.75
2018-12-16T02:01:13.999Z,1002.72
2018-12-16T02:01:55.267Z,1002.68
2018-12-16T02:02:35.679Z,1002.65
2018-12-16T02:03:16.122Z,1002.6
2018-12-16T02:03:56.436Z,1002.55
2018-12-16T02:04:36.846Z,1002.61
2018-12-16T02:05:17.199Z,1002.56
2018-12-16T02:05:57.584Z,1002.59
2018-12-16T02:06:38.032Z,1002.58
2018-12-16T02:07:18.524Z,1002.58
2018-12-16T02:07:58.816Z,1002.55
2018-12-16T02:08:39.193Z,1002.55
2018-12-16T02:09:19.667Z,1002.55
2018-12-16T02:09:59.994Z,1002.5
2018-12-16T02:10:40.540Z,1002.44
2018-12-16T02:11:20.886Z,1002.49
2018-12-16T02:12:01.291Z,1002.53
2018-12-16T02:12:41.641Z,1002.44
2018-12-16T02:13:22.087Z,1002.49
2018-12-16T02:14:02.519Z,1002.49
2018-12-16T02:14:42.870Z,1002.44
2018-12-16T02:15:23.285Z,1002.5
2018-12-16T02:16:03.643Z,1002.41
2018-12-16T02:16:44.090Z,1002.41
2018-12-16T02:17:24.438Z,1002.45
2018-12-16T02:18:04.773Z,1002.57
2018-12-16T02:18:45.186Z,1002.44
2018-12-16T02:19:25.594Z,1002.52
2018-12-16T02:20:05.987Z,1002.6
2018-12-16T02:20:46.319Z,1002.44
2018-12-16T02:21:26.739Z,1002.45
2018-12-16T02:22:07.127Z,1002.47
2018-12-16T02:22:47.532Z,1002.53
2018-12-16T02:23:27.932Z,1002.37
2018-12-16T02:24:08.309Z,1002.46
2018-12-16T02:24:48.799Z,1002.44
2018-12-16T02:25:29.190Z,1002.5
2018-12-16T02:26:09.510Z,1002.35
2018-12-16T02:26:50.034Z,1002.34
2018-12-16T02:27:30.331Z,1002.42
2018-12-16T02:28:10.733Z,1002.32
2018-12-16T02:28:51.093Z,1002.26
2018-12-16T02:29:31.595Z,1002.34
2018-12-16T02:30:12.346Z,1002.2
2018-12-16T02:30:52.650Z,1002.25
2018-12-16T02:31:33.032Z,1002.38
2018-12-16T02:32:13.462Z,1002.47
2018-12-16T02:32:53.863Z,1002.28
2018-12-16T02:33:34.254Z,1002.24
2018-12-16T02:34:14.655Z,1002.2
2018-12-16T02:34:55.865Z,1002.28
2018-12-16T02:35:37.555Z,1002.17
2018-12-16T02:36:18.287Z,1002.17
2018-12-16T02:36:58.770Z,1002.15
2018-12-16T02:37:39.175Z,1002.29
2018-12-16T02:38:20.311Z,1002.26
2018-12-16T02:39:00.599Z,1002.13
2018-12-16T02:39:40.939Z,1002.19
2018-12-16T02:40:21.312Z,1002.19
2018-12-16T02:41:01.700Z,1002.16
2018-12-16T02:41:42.081Z,1002.17
2018-12-16T02:42:22.637Z,1002.12
2018-12-16T02:43:02.944Z,1002.08
2018-12-16T02:43:43.431Z,1002.07
2018-12-16T02:44:23.844Z,1002.04
2018-12-16T02:45:04.323Z,1002.04
2018-12-16T02:45:44.807Z,1002.32
2018-12-16T02:46:25.189Z,1002.05
2018-12-16T02:47:05.548Z,1001.95
2018-12-16T02:47:46.915Z,1002.05
2018-12-16T02:48:27.256Z,1002.16
2018-12-16T02:49:07.722Z,1001.86
2018-12-16T02:49:48.146Z,1001.91
2018-12-16T02:50:28.457Z,1001.91
2018-12-16T02:51:08.886Z,1001.84
2018-12-16T02:51:49.264Z,1001.85
2018-12-16T02:52:29.770Z,1001.87
2018-12-16T02:53:10.244Z,1001.94
2018-12-16T02:53:50.935Z,1001.83
2018-12-16T02:54:31.753Z,1001.81
2018-12-16T02:55:12.557Z,1001.76
2018-12-16T02:55:53.095Z,1001.73
2018-12-16T02:56:34.540Z,1001.78
2018-12-16T02:57:15.315Z,1001.75
2018-12-16T02:57:56.006Z,1001.7
2018-12-16T02:58:36.806Z,1001.82
2018-12-16T02:59:17.722Z,1001.71
2018-12-16T02:59:58.718Z,1001.7
2018-12-16T03:00:40.234Z,1001.65
2018-12-16T03:01:21.120Z,1001.66
2018-12-16T03:02:02.059Z,1001.72
2018-12-16T03:02:42.613Z,1001.66
2018-12-16T03:03:23.323Z,1001.67
2018-12-16T03:04:03.725Z,1001.64
2018-12-16T03:04:44.487Z,1001.61
2018-12-16T03:05:24.989Z,1001.64
2018-12-16T03:06:05.550Z,1001.67
2018-12-16T03:06:46.097Z,1001.7
2018-12-16T03:07:26.652Z,1001.58
2018-12-16T03:08:07.050Z,1001.66
2018-12-16T03:08:47.521Z,1001.68
2018-12-16T03:09:28.774Z,1001.66
2018-12-16T03:10:09.407Z,1001.65
2018-12-16T03:10:49.810Z,1001.63
2018-12-16T03:11:30.545Z,1001.66
2018-12-16T03:12:11.079Z,1001.52
2018-12-16T03:12:51.712Z,1001.58
2018-12-16T03:13:32.460Z,1001.55
2018-12-16T03:14:13.373Z,1001.61
2018-12-16T03:14:54.791Z,1001.65
2018-12-16T03:15:35.576Z,1001.56
2018-12-16T03:16:16.144Z,1001.64
2018-12-16T03:16:57.642Z,1001.6
2018-12-16T03:17:38.162Z,1001.58
2018-12-16T03:18:19.566Z,1001.56
2018-12-16T03:19:00.399Z,1001.58
2018-12-16T03:19:41.580Z,1001.59
2018-12-16T03:20:22.140Z,1001.65
2018-12-16T03:21:02.726Z,1001.59
2018-12-16T03:21:43.372Z,1001.63
2018-12-16T03:22:24.182Z,1001.54
2018-12-16T03:23:11.907Z,1001.58
2018-12-16T03:23:46.206Z,1001.68
2018-12-16T03:24:26.788Z,1001.6
2018-12-16T03:25:07.495Z,1001.53
2018-12-16T03:25:48.118Z,1001.55
2018-12-16T03:26:35.590Z,1001.61
2018-12-16T03:27:09.835Z,1001.66
2018-12-16T03:27:50.609Z,1001.55
2018-12-16T03:28:31.689Z,1001.48
2018-12-16T03:29:12.470Z,1001.54
2018-12-16T03:29:53.311Z,1001.53
2018-12-16T03:30:34.164Z,1001.49
2018-12-16T03:31:14.713Z,1001.52
2018-12-16T03:31:55.337Z,1001.65
2018-12-16T03:32:35.882Z,1001.65
2018-12-16T03:33:16.512Z,1001.53
2018-12-16T03:33:57.313Z,1001.52
2018-12-16T03:34:38.606Z,1001.57
2018-12-16T03:35:19.527Z,1001.48
2018-12-16T03:36:00.593Z,1001.51
2018-12-16T03:36:41.284Z,1001.52
2018-12-16T03:37:22.003Z,1001.44
2018-12-16T03:38:03.615Z,1001.5
2018-12-16T03:38:44.671Z,1001.4
2018-12-16T03:39:25.188Z,1001.52
2018-12-16T03:40:05.994Z,1001.43
2018-12-16T03:40:47.099Z,1001.44
2018-12-16T03:41:27.682Z,1001.38
2018-12-16T03:42:08.549Z,1001.46
2018-12-16T03:42:49.225Z,1001.5
2018-12-16T03:43:29.941Z,1001.46
2018-12-16T03:44:10.578Z,1001.47
2018-12-16T03:44:51.212Z,1001.47
2018-12-16T03:45:32.753Z,1001.46
2018-12-16T03:46:13.314Z,1001.36
2018-12-16T03:46:53.670Z,1001.39
2018-12-16T03:47:34.055Z,1001.41
2018-12-16T03:48:14.484Z,1001.34
2018-12-16T03:48:55.124Z,1001.33
2018-12-16T03:49:35.438Z,1001.35
2018-12-16T03:50:15.757Z,1001.4
2018-12-16T03:50:56.207Z,1001.34
2018-12-16T03:51:36.656Z,1001.3
2018-12-16T03:52:16.949Z,1001.31
2018-12-16T03:52:57.326Z,1001.35
2018-12-16T03:53:37.778Z,1001.32
2018-12-16T03:54:18.218Z,1001.32
2018-12-16T03:54:58.664Z,1001.34
2018-12-16T03:55:38.898Z,1001.33
2018-12-16T03:56:19.363Z,1001.34
2018-12-16T03:56:59.841Z,1001.28
2018-12-16T03:57:40.256Z,1001.25
2018-12-16T03:58:20.606Z,1001.21
2018-12-16T03:59:01.819Z,1001.13
2018-12-16T03:59:42.321Z,1001.31
2018-12-16T04:00:22.598Z,1001.25
2018-12-16T04:01:02.999Z,1001.25
2018-12-16T04:01:43.420Z,1001.25
2018-12-16T04:02:23.737Z,1001.22
2018-12-16T04:03:04.191Z,1001.24
2018-12-16T04:03:44.628Z,1001.27
2018-12-16T04:04:24.968Z,1001.13
2018-12-16T04:05:05.379Z,1001.2
2018-12-16T04:05:45.841Z,1001.15
2018-12-16T04:06:26.344Z,1001.17
2018-12-16T04:07:07.059Z,1001.18
2018-12-16T04:07:47.240Z,1001.21
2018-12-16T04:08:27.510Z,1001.19
2018-12-16T04:09:08.150Z,1001.18
2018-12-16T04:09:48.560Z,1001.25
2018-12-16T04:10:28.960Z,1001.22
2018-12-16T04:11:10.030Z,1001.2
2018-12-16T04:11:50.391Z,1001.18
2018-12-16T04:12:30.811Z,1001.24
2018-12-16T04:13:11.442Z,1001.17
2018-12-16T04:13:51.841Z,1001.2
2018-12-16T04:14:32.295Z,1001.25
2018-12-16T04:15:12.699Z,1001.26
2018-12-16T04:15:53.095Z,1001.28
2018-12-16T04:16:33.731Z,1001.3
2018-12-16T04:17:14.420Z,1001.32
2018-12-16T04:17:54.804Z,1001.32
2018-12-16T04:18:35.367Z,1001.37
2018-12-16T04:19:15.935Z,1001.35
2018-12-16T04:19:56.739Z,1001.31
2018-12-16T04:20:38.414Z,1001.35
2018-12-16T04:21:18.981Z,1001.34
2018-12-16T04:21:59.330Z,1001.38
2018-12-16T04:22:39.703Z,1001.35
2018-12-16T04:23:27.249Z,1001.47
2018-12-16T04:24:00.691Z,1001.36
2018-12-16T04:24:41.503Z,1001.37
2018-12-16T04:25:21.965Z,1001.4
2018-12-16T04:26:02.392Z,1001.35
2018-12-16T04:26:42.845Z,1001.39
2018-12-16T04:27:23.248Z,1001.37
2018-12-16T05:06:51.382Z,1000.91
2018-12-16T05:07:31.712Z,1000.89
2018-12-16T05:08:12.107Z,1000.98
2018-12-16T05:08:52.495Z,1000.95
2018-12-16T05:09:32.858Z,1000.94
2018-12-16T05:11:34.506Z,1001.05
2018-12-16T05:12:27.015Z,1001.16
2018-12-16T05:13:19.517Z,1001.1
2018-12-16T05:14:11.706Z,1001.09
2018-12-16T05:15:03.809Z,1001.04
2018-12-16T05:15:55.841Z,1000.98
2018-12-16T05:16:48.916Z,1001
2018-12-16T05:17:41.384Z,1000.93
2018-12-16T05:18:33.980Z,1000.93
2018-12-16T05:19:25.973Z,1000.99
2018-12-16T05:20:18.562Z,1000.99
2018-12-16T05:21:10.793Z,1000.96
2018-12-16T05:22:03.015Z,1000.96
2018-12-16T05:22:55.655Z,1000.92
2018-12-16T05:23:47.839Z,1000.97
2018-12-16T05:24:40.350Z,1001.02
2018-12-16T05:25:32.521Z,1000.98
2018-12-16T05:26:24.955Z,1000.92
2018-12-16T05:27:17.231Z,1000.93
2018-12-16T05:28:10.118Z,1001
2018-12-16T05:29:02.468Z,1001.03
2018-12-16T05:29:54.863Z,1001.03
2018-12-16T05:30:47.499Z,1001.07
2018-12-16T05:31:39.917Z,1001.06
2018-12-16T05:32:32.829Z,1001.07
2018-12-16T05:33:25.021Z,1001.07
2018-12-16T05:34:17.535Z,1001.13
2018-12-16T05:35:10.507Z,1001.1
2018-12-16T05:36:02.986Z,1001.12
2018-12-16T05:36:55.290Z,1001.06
2018-12-16T05:37:47.371Z,1001.13
2018-12-16T05:38:40.028Z,1001.07
2018-12-16T05:39:32.539Z,1001.1
2018-12-16T05:40:24.446Z,1001.09
2018-12-16T05:41:16.344Z,1001.11
2018-12-16T05:42:08.429Z,1001.12
2018-12-16T05:43:00.444Z,1001.08
2018-12-16T05:43:53.009Z,1001.05
2018-12-16T05:44:44.806Z,1000.96
2018-12-16T05:45:34.454Z,1000.99
2018-12-16T05:46:14.993Z,1000.97
2018-12-16T05:46:55.403Z,1000.94
2018-12-16T05:47:35.749Z,1000.94
2018-12-16T05:48:16.182Z,1001.01
2018-12-16T05:48:56.707Z,1000.99
2018-12-16T05:49:37.064Z,1000.94
2018-12-16T05:50:17.473Z,1000.95
2018-12-16T05:50:57.818Z,1000.91
2018-12-16T05:51:38.321Z,1001.01
2018-12-16T05:52:19.216Z,1001.02
2018-12-16T05:52:59.644Z,1000.91
2018-12-16T05:53:48.346Z,1000.94
2018-12-16T05:54:22.977Z,1000.96
2018-12-16T05:55:03.274Z,1000.96
2018-12-16T05:55:44.131Z,1001
2018-12-16T05:56:24.888Z,1000.95
2018-12-16T05:57:05.971Z,1001.02
2018-12-16T05:57:46.618Z,1000.94
2018-12-16T05:58:27.003Z,1000.89
2018-12-16T05:59:07.736Z,1000.85
2018-12-16T05:59:48.127Z,1000.88
2018-12-16T06:00:28.511Z,1000.81
2018-12-16T06:01:08.955Z,1000.79
2018-12-16T06:01:50.343Z,1000.81
2018-12-16T06:02:30.595Z,1000.79
2018-12-16T06:03:11.263Z,1000.81
2018-12-16T06:03:52.114Z,1000.77
2018-12-16T06:04:32.429Z,1000.73
2018-12-16T06:05:12.872Z,1000.75
2018-12-16T06:05:53.331Z,1000.73
2018-12-16T06:06:34.082Z,1000.73
2018-12-16T06:07:14.674Z,1000.79
2018-12-16T06:07:55.217Z,1000.77
2018-12-16T06:08:35.887Z,1000.69
2018-12-16T06:09:16.633Z,1000.74
2018-12-16T06:09:57.077Z,1000.72
2018-12-16T06:10:37.477Z,1000.77
2018-12-16T06:11:17.900Z,1000.76
2018-12-16T06:11:58.607Z,1000.78
2018-12-16T06:12:38.994Z,1000.77
2018-12-16T06:13:20.107Z,1000.77
2018-12-16T06:14:00.400Z,1000.78
2018-12-16T06:14:40.824Z,1000.72
2018-12-16T06:15:21.352Z,1000.79
2018-12-16T06:16:01.942Z,1000.78
2018-12-16T06:16:42.793Z,1000.74
2018-12-16T06:17:22.986Z,1000.67
2018-12-16T06:18:03.729Z,1000.79
2018-12-16T06:18:44.300Z,1000.75
2018-12-16T06:19:24.708Z,1000.73
2018-12-16T06:20:05.455Z,1000.79
2018-12-16T06:20:46.473Z,1000.7
2018-12-16T06:21:27.093Z,1000.68
2018-12-16T06:22:07.743Z,1000.7
2018-12-16T06:22:48.663Z,1000.69
2018-12-16T06:23:28.956Z,1000.7
2018-12-16T06:24:09.369Z,1000.74
2018-12-16T06:24:49.875Z,1000.7
2018-12-16T06:25:31.903Z,1000.71
2018-12-16T06:26:12.868Z,1000.71
2018-12-16T06:26:53.265Z,1000.65
2018-12-16T06:27:33.721Z,1000.67
2018-12-16T06:28:14.222Z,1000.71
2018-12-16T06:28:54.767Z,1000.68
2018-12-16T06:29:35.597Z,1000.63
2018-12-16T06:30:16.094Z,1000.73
2018-12-16T06:30:57.023Z,1000.77
2018-12-16T06:31:38.223Z,1000.69
2018-12-16T06:32:19.199Z,1000.66
2018-12-16T06:32:59.597Z,1000.65
2018-12-16T06:33:41.644Z,1000.69
2018-12-16T06:34:22.705Z,1000.65
2018-12-16T06:35:03.183Z,1000.68
2018-12-16T06:35:54.220Z,1000.75
2018-12-16T06:36:34.693Z,1000.71
2018-12-16T06:37:19.147Z,1000.77
2018-12-16T06:39:12.553Z,1000.78
2018-12-16T06:39:53.025Z,1000.76
2018-12-16T06:40:33.395Z,1000.74
2018-12-16T06:41:13.803Z,1000.78
2018-12-16T06:41:55.281Z,1000.73
2018-12-16T06:42:34.570Z,1000.71
2018-12-16T06:43:14.975Z,1000.73
2018-12-16T06:43:55.336Z,1000.7
2018-12-16T06:44:35.737Z,1000.75
2018-12-16T06:45:16.209Z,1000.72
2018-12-16T06:45:56.615Z,1000.75
2018-12-16T06:46:36.981Z,1000.77
2018-12-16T06:47:17.385Z,1000.69
2018-12-16T06:47:57.752Z,1000.75
2018-12-16T06:48:38.176Z,1000.72
2018-12-16T06:49:18.670Z,1000.71
2018-12-16T06:49:59.068Z,1000.71
2018-12-16T06:50:39.455Z,1000.76
2018-12-16T06:51:20.002Z,1000.78
2018-12-16T06:52:00.428Z,1000.7
2018-12-16T06:52:40.832Z,1000.77
2018-12-16T06:53:21.215Z,1000.74
2018-12-16T06:54:02.508Z,1000.78
2018-12-16T06:54:42.026Z,1000.71
2018-12-16T06:55:22.417Z,1000.73
2018-12-16T06:56:06.575Z,1000.7
2018-12-16T06:56:43.241Z,1000.71
2018-12-16T06:57:23.594Z,1000.71
2018-12-16T06:58:04.017Z,1000.7
2018-12-16T06:58:44.368Z,1000.69
2018-12-16T06:59:24.751Z,1000.69
2018-12-16T07:01:22.157Z,1000.73
2018-12-16T07:02:02.601Z,1000.72
2018-12-16T07:02:42.972Z,1000.69
2018-12-16T07:03:23.387Z,1000.69
2018-12-16T07:04:03.850Z,1000.76
2018-12-16T07:04:44.213Z,1000.73
2018-12-16T07:05:24.581Z,1000.71
2018-12-16T07:06:04.984Z,1000.7
2018-12-16T07:06:45.360Z,1000.69
2018-12-16T07:07:25.789Z,1000.71
2018-12-16T07:08:06.193Z,1000.77
2018-12-16T07:08:46.630Z,1000.7
2018-12-16T07:09:26.995Z,1000.71
2018-12-16T07:10:07.412Z,1000.73
2018-12-16T07:10:47.782Z,1000.79
2018-12-16T07:11:28.187Z,1000.68
2018-12-16T07:12:08.542Z,1000.74
2018-12-16T07:12:48.945Z,1000.73
2018-12-16T07:13:29.347Z,1000.73
2018-12-16T07:14:09.702Z,1000.68
2018-12-16T07:14:50.135Z,1000.73
2018-12-16T07:15:30.531Z,1000.7
2018-12-16T07:16:10.947Z,1000.74
2018-12-16T07:16:51.357Z,1000.68
2018-12-16T07:17:31.737Z,1000.76
2018-12-16T07:18:12.119Z,1000.73
2018-12-16T07:18:52.518Z,1000.72
2018-12-16T07:19:33.318Z,1000.7
2018-12-16T07:20:13.691Z,1000.76
2018-12-16T07:20:54.054Z,1000.75
2018-12-16T07:21:34.429Z,1000.77
2018-12-16T07:22:14.801Z,1000.75
2018-12-16T07:22:55.177Z,1000.75
2018-12-16T07:23:35.556Z,1000.74
2018-12-16T07:24:15.950Z,1000.75
2018-12-16T07:26:33.766Z,1000.77
2018-12-16T07:27:14.599Z,1000.79
2018-12-16T07:27:54.991Z,1000.78
2018-12-16T07:28:35.354Z,1000.82
2018-12-16T07:29:15.782Z,1000.73
2018-12-16T07:29:56.161Z,1000.77
2018-12-16T07:30:36.548Z,1000.81
2018-12-16T07:33:04.257Z,1000.87
2018-12-16T07:33:44.765Z,1000.88
2018-12-16T07:34:25.229Z,1000.88
2018-12-16T07:35:05.587Z,1000.83
2018-12-16T07:35:45.981Z,1000.82
2018-12-16T07:36:26.306Z,1000.88
2018-12-16T07:37:06.731Z,1000.87
2018-12-16T07:37:47.119Z,1000.84
2018-12-16T07:38:27.471Z,1000.88
2018-12-16T07:39:07.946Z,1000.87
2018-12-16T07:39:48.271Z,1000.87
2018-12-16T07:40:28.675Z,1000.85
2018-12-16T07:41:09.077Z,1000.85
2018-12-16T07:41:49.520Z,1000.83
2018-12-16T07:42:29.848Z,1000.8
2018-12-16T07:43:10.190Z,1000.81
2018-12-16T07:43:50.625Z,1000.82
2018-12-16T07:44:31.014Z,1000.79
2018-12-16T07:45:11.397Z,1000.84
2018-12-16T07:45:51.820Z,1000.8
2018-12-16T07:46:32.226Z,1000.79
2018-12-16T07:47:12.594Z,1000.78
2018-12-16T07:47:52.982Z,1000.84
2018-12-16T07:48:33.402Z,1000.83
2018-12-16T07:49:13.799Z,1000.86
2018-12-16T07:49:54.237Z,1000.87
2018-12-16T07:50:34.632Z,1000.89
2018-12-16T07:51:15.038Z,1000.87
2018-12-16T07:51:55.485Z,1000.91
2018-12-16T07:52:35.852Z,1000.92
2018-12-16T07:53:16.254Z,1000.92
2018-12-16T07:53:56.808Z,1000.97
2018-12-16T07:54:37.322Z,1000.95
2018-12-16T07:55:17.695Z,1000.96
2018-12-16T07:55:58.132Z,1000.94
2018-12-16T07:56:38.566Z,1000.97
2018-12-16T07:57:18.960Z,1000.95
2018-12-16T07:57:59.403Z,1000.98
2018-12-16T07:58:39.770Z,1000.99
2018-12-16T07:59:20.121Z,1001.04
2018-12-16T08:00:00.563Z,1001.01
2018-12-16T08:00:40.907Z,1000.98
2018-12-16T08:01:21.288Z,1001.02
2018-12-16T08:02:01.652Z,1001.04
2018-12-16T08:02:42.007Z,1000.98
2018-12-16T08:03:22.377Z,1001
2018-12-16T08:04:02.797Z,1000.95
2018-12-16T08:04:43.213Z,1000.93
2018-12-16T08:05:23.531Z,1000.97
2018-12-16T08:06:03.944Z,1000.93
2018-12-16T08:06:44.363Z,1000.94
2018-12-16T08:07:24.721Z,1000.99
2018-12-16T08:08:05.117Z,1000.99
2018-12-16T08:08:45.541Z,1001
2018-12-16T08:09:25.907Z,1000.99
2018-12-16T08:10:06.287Z,1001.03
2018-12-16T08:10:46.729Z,1001.01
2018-12-16T08:11:27.163Z,1001.08
2018-12-16T08:12:07.546Z,1001.07
2018-12-16T08:12:47.970Z,1001.08
2018-12-16T08:13:28.365Z,1001.11
2018-12-16T08:14:08.755Z,1001.11
2018-12-16T08:14:49.169Z,1001.11
2018-12-16T08:15:29.582Z,1001.1
2018-12-16T08:16:09.964Z,1001.15
2018-12-16T08:16:50.326Z,1001.16
2018-12-16T08:17:30.709Z,1001.16
2018-12-16T08:18:11.100Z,1001.16
2018-12-16T08:18:51.499Z,1001.15
2018-12-16T08:19:31.876Z,1001.19
2018-12-16T08:20:12.290Z,1001.15
2018-12-16T08:20:52.678Z,1001.12
2018-12-16T08:21:33.087Z,1001.13
2018-12-16T08:22:13.480Z,1001.15
2018-12-16T08:22:53.870Z,1001.18
2018-12-16T08:23:35.469Z,1001.13
2018-12-16T08:24:14.671Z,1001.16
2018-12-16T08:24:55.026Z,1001.14
2018-12-16T08:25:35.426Z,1001.14
2018-12-16T08:26:15.792Z,1001.18
2018-12-16T08:26:56.169Z,1001.18
2018-12-16T08:27:36.551Z,1001.17
2018-12-16T08:28:16.956Z,1001.18
2018-12-16T08:28:57.367Z,1001.2
2018-12-16T08:29:37.744Z,1001.16
2018-12-16T08:30:18.119Z,1001.21
2018-12-16T08:30:58.523Z,1001.22
2018-12-16T08:31:38.939Z,1001.26
2018-12-16T08:32:19.364Z,1001.25
2018-12-16T08:32:59.751Z,1001.28
2018-12-16T08:33:40.128Z,1001.29
2018-12-16T08:34:20.538Z,1001.3
2018-12-16T08:35:00.936Z,1001.28
2018-12-16T08:35:41.324Z,1001.24
2018-12-16T08:36:21.687Z,1001.29
2018-12-16T08:37:02.067Z,1001.29
2018-12-16T08:37:42.468Z,1001.29
2018-12-16T08:38:22.850Z,1001.3
2018-12-16T08:39:03.215Z,1001.3
2018-12-16T08:39:43.611Z,1001.29
2018-12-16T08:40:23.986Z,1001.29
2018-12-16T08:41:04.383Z,1001.28
2018-12-16T08:41:44.793Z,1001.3
2018-12-16T08:42:25.159Z,1001.24
2018-12-16T08:43:05.570Z,1001.32
2018-12-16T08:43:45.933Z,1001.3
2018-12-16T08:44:26.312Z,1001.28
2018-12-16T08:45:06.697Z,1001.3
2018-12-16T08:45:47.103Z,1001.29
2018-12-16T08:46:27.490Z,1001.35
2018-12-16T08:47:07.891Z,1001.36
2018-12-16T08:47:48.300Z,1001.34
2018-12-16T08:48:28.670Z,1001.37
2018-12-16T08:49:09.066Z,1001.43
2018-12-16T08:49:49.458Z,1001.41
2018-12-16T08:50:29.835Z,1001.37
2018-12-16T08:51:10.199Z,1001.37
2018-12-16T08:51:50.588Z,1001.37
2018-12-16T08:52:30.986Z,1001.37
2018-12-16T08:53:11.372Z,1001.35
2018-12-16T08:53:51.802Z,1001.38
2018-12-16T08:54:32.217Z,1001.43
2018-12-16T08:55:12.583Z,1001.41
2018-12-16T08:55:52.970Z,1001.45
2018-12-16T08:56:33.387Z,1001.38
2018-12-16T08:57:13.749Z,1001.37
2018-12-16T08:57:54.145Z,1001.34
2018-12-16T08:58:34.537Z,1001.34
2018-12-16T08:59:14.905Z,1001.33
2018-12-16T08:59:55.311Z,1001.35
2018-12-16T09:02:22.938Z,1001.41
2018-12-16T09:03:03.384Z,1001.36
2018-12-16T09:03:43.732Z,1001.37
2018-12-16T09:04:24.130Z,1001.36
2018-12-16T09:05:04.515Z,1001.36
2018-12-16T09:05:44.896Z,1001.31
2018-12-16T09:06:25.301Z,1001.29
2018-12-16T09:07:05.670Z,1001.29
2018-12-16T09:07:46.038Z,1001.24
2018-12-16T09:08:26.457Z,1001.29
2018-12-16T09:09:06.804Z,1001.3
2018-12-16T09:09:47.174Z,1001.33
2018-12-16T09:10:33.905Z,1001.28
2018-12-16T09:11:08.009Z,1001.31
2018-12-16T09:11:48.398Z,1001.32
2018-12-16T09:12:28.749Z,1001.34
2018-12-16T09:13:09.153Z,1001.37
2018-12-16T09:13:49.529Z,1001.41
2018-12-16T09:14:29.909Z,1001.38